^^
Meteo Knjazevac Station Historical Data
Daily Summary for November 23, 2021 Units:  Metric    English   Both
Daily Weekly Monthly Yearly Custom
  High: Low: Average:
Temperature: 10 °C 5.5 °C 7.2 °C
Dew Point: 9.8 °C 4.7 °C 6.8 °C
Humidity: 99% 90% 97%
Wind Speed: 12.9km/h 0km/h 3.7km/h
Wind Gust: 19.3km/h - -
Wind- - WSW
Pressure: 1026.6 hPa 1018.5 hPa -
Precipitation: 3.3 mm    
Historical Graphs
 
 
Tabular Data for November 23, 2021
Time Temperature Dew Point Pressure Wind Wind Speed Wind Gust Humidity Rainfall Rate (Hourly) solar Conditions
00:00 10 °C 9.8 °C 1018.5 hPa Calm   3.2 km/h 99% 0 mm 0 W/m2
00:10 10 °C 9.8 °C 1018.5 hPa Calm   3.2 km/h 99% 0 mm 0 W/m2
00:20 10 °C 9.8 °C 1018.5 hPa Calm     99% 0 mm 0 W/m2
00:30 10 °C 9.8 °C 1018.5 hPa Calm   1.6 km/h 99% 0 mm 0 W/m2
00:40 9.9 °C 9.8 °C 1018.5 hPa Calm   3.2 km/h 99% 0 mm 0 W/m2
00:50 9.9 °C 9.8 °C 1018.5 hPa NNW 3.2 km/h 4.8 km/h 99% 0 mm 0 W/m2
01:00 9.9 °C 9.8 °C 1018.8 hPa Calm   3.2 km/h 99% 0 mm 0 W/m2
01:10 9.9 °C 9.7 °C 1018.8 hPa WSW 3.2 km/h 8 km/h 99% 0 mm 0 W/m2
01:20 9.8 °C 9.7 °C 1018.8 hPa SW 4.8 km/h 11.3 km/h 99% 0 mm 0 W/m2
01:30 9.8 °C 9.7 °C 1018.8 hPa SW 3.2 km/h 9.7 km/h 99% 0 mm 0 W/m2
01:40 9.7 °C 9.6 °C 1018.8 hPa WSW 4.8 km/h 9.7 km/h 99% 0 mm 0 W/m2
01:50 9.6 °C 9.3 °C 1019.2 hPa WSW 3.2 km/h 8 km/h 98% 0 mm 0 W/m2
02:00 9.5 °C 9.2 °C 1019.2 hPa West 3.2 km/h 9.7 km/h 98% 0 mm 0 W/m2
02:10 9.3 °C 9 °C 1019.2 hPa West 8 km/h 12.9 km/h 98% 0 mm 0 W/m2
02:20 9.3 °C 9 °C 1019.5 hPa SW 1.6 km/h 4.8 km/h 98% 0 mm 0 W/m2
02:30 9.2 °C 9.1 °C 1019.5 hPa South 1.6 km/h 4.8 km/h 99% 0 mm 0 W/m2
02:40 9.1 °C 8.9 °C 1019.5 hPa Calm   4.8 km/h 99% 0 mm 0 W/m2
02:50 9.1 °C 8.9 °C 1019.5 hPa WSW 1.6 km/h 6.4 km/h 99% 0 mm 0 W/m2
03:00 9 °C 8.8 °C 1019.5 hPa WSW 3.2 km/h 8 km/h 99% 0 mm 0 W/m2
03:10 8.8 °C 8.7 °C 1019.9 hPa West 3.2 km/h 9.7 km/h 99% 0 mm 0 W/m2
03:20 8.7 °C 8.6 °C 1019.9 hPa West 4.8 km/h 11.3 km/h 99% 0 mm 0 W/m2
03:30 8.6 °C 8.4 °C 1019.9 hPa SW 4.8 km/h 9.7 km/h 99% 0 mm 0 W/m2
03:40 8.5 °C 8.3 °C 1019.9 hPa WSW 4.8 km/h 12.9 km/h 99% 0 mm 0 W/m2
03:50 8.3 °C 8.2 °C 1019.9 hPa WSW 4.8 km/h 9.7 km/h 99% 0 mm 0 W/m2
04:00 8.2 °C 8.1 °C 1019.9 hPa WSW 3.2 km/h 11.3 km/h 99% 0 mm 0 W/m2
04:10 8.1 °C 7.9 °C 1019.9 hPa WSW 4.8 km/h 9.7 km/h 99% 0 mm 0 W/m2
04:20 8 °C 7.8 °C 1019.9 hPa WSW 4.8 km/h 9.7 km/h 99% 0 mm 0 W/m2
04:30 7.8 °C 7.7 °C 1020.2 hPa WSW 8 km/h 11.3 km/h 99% 0 mm 0 W/m2
04:40 7.7 °C 7.6 °C 1020.2 hPa WSW 4.8 km/h 11.3 km/h 99% 0 mm 0 W/m2
04:50 7.6 °C 7.4 °C 1020.2 hPa WSW 8 km/h 12.9 km/h 99% 0 mm 0 W/m2
05:00 7.5 °C 7.3 °C 1020.2 hPa WSW 4.8 km/h 11.3 km/h 99% 0 mm 0 W/m2
05:10 7.5 °C 7.3 °C 1020.2 hPa WSW 4.8 km/h 11.3 km/h 99% 0 mm 0 W/m2
05:20 7.4 °C 7.3 °C 1020.5 hPa WSW 4.8 km/h 11.3 km/h 99% 0 mm 0 W/m2
05:30 7.3 °C 7.2 °C 1020.5 hPa WSW 8 km/h 12.9 km/h 99% 0 mm 0 W/m2
05:40 7.2 °C 7.1 °C 1020.5 hPa WSW 4.8 km/h 12.9 km/h 99% 0 mm 0 W/m2
05:50 7.2 °C 7.1 °C 1020.5 hPa SW 8 km/h 11.3 km/h 99% 0 mm 0 W/m2
06:00 7.1 °C 6.9 °C 1020.5 hPa SW 9.7 km/h 11.3 km/h 99% 0 mm 0 W/m2
06:10 7 °C 6.8 °C 1020.9 hPa SW 8 km/h 12.9 km/h 99% 0 mm 0 W/m2
06:20 7 °C 6.8 °C 1020.9 hPa SW 8 km/h 12.9 km/h 99% 0 mm 0 W/m2
06:30 7 °C 6.8 °C 1020.9 hPa SW 8 km/h 11.3 km/h 99% 0 mm 0 W/m2
06:40 6.9 °C 6.8 °C 1021.2 hPa SW 4.8 km/h 12.9 km/h 99% 2.54 mm 0 W/m2
06:50 6.9 °C 6.8 °C 1021.2 hPa SW 4.8 km/h 8 km/h 99% 0 mm 1 W/m2
07:00 6.8 °C 6.7 °C 1021.6 hPa SW 8 km/h 12.9 km/h 99% 0 mm 3 W/m2
07:10 6.8 °C 6.7 °C 1021.6 hPa SW 4.8 km/h 12.9 km/h 99% 0 mm 4 W/m2
07:20 6.8 °C 6.7 °C 1021.6 hPa SW 4.8 km/h 12.9 km/h 99% 0 mm 5 W/m2
07:30 6.8 °C 6.7 °C 1021.6 hPa WSW 4.8 km/h 11.3 km/h 99% 0 mm 8 W/m2
07:40 6.7 °C 6.6 °C 1021.6 hPa SW 4.8 km/h 11.3 km/h 99% 0 mm 8 W/m2
07:50 6.7 °C 6.6 °C 1021.9 hPa SW 8 km/h 9.7 km/h 99% 0 mm 9 W/m2
08:00 6.7 °C 6.6 °C 1021.9 hPa SW 4.8 km/h 9.7 km/h 99% 0 mm 19 W/m2
08:10 6.7 °C 6.6 °C 1022.2 hPa SW 3.2 km/h 8 km/h 99% 0 mm 26 W/m2
08:20 6.8 °C 6.7 °C 1022.2 hPa SW 3.2 km/h 8 km/h 99% 0 mm 33 W/m2
08:30 6.8 °C 6.7 °C 1022.2 hPa SW 3.2 km/h 8 km/h 99% 0 mm 28 W/m2
08:40 6.9 °C 6.8 °C 1022.6 hPa SW 4.8 km/h 8 km/h 99% 0 mm 24 W/m2
08:50 6.9 °C 6.8 °C 1022.6 hPa SW 4.8 km/h 8 km/h 99% 0 mm 22 W/m2
09:00 6.9 °C 6.8 °C 1022.6 hPa SW 4.8 km/h 9.7 km/h 99% 0 mm 28 W/m2
09:10 6.9 °C 6.8 °C 1022.9 hPa SW 3.2 km/h 9.7 km/h 99% 0 mm 43 W/m2
09:20 6.9 °C 6.8 °C 1022.9 hPa SW 8 km/h 9.7 km/h 99% 0 mm 42 W/m2
09:30 7 °C 6.8 °C 1022.9 hPa SW 1.6 km/h 9.7 km/h 99% 0 mm 35 W/m2
09:40 7 °C 6.8 °C 1022.9 hPa SSW 3.2 km/h 4.8 km/h 99% 0 mm 32 W/m2
09:50 7.1 °C 6.9 °C 1023.2 hPa SSW 3.2 km/h 6.4 km/h 99% 0 mm 28 W/m2
10:00 7.1 °C 6.9 °C 1023.2 hPa SSW 3.2 km/h 4.8 km/h 99% 0 mm 31 W/m2
10:10 7.1 °C 6.9 °C 1023.2 hPa SW 1.6 km/h 4.8 km/h 99% 0 mm 42 W/m2
10:20 7.2 °C 7.1 °C 1023.2 hPa SSW 1.6 km/h 4.8 km/h 99% 0 mm 40 W/m2
10:30 7.2 °C 7.1 °C 1023.2 hPa SSW 1.6 km/h 4.8 km/h 99% 0 mm 53 W/m2
10:40 7.2 °C 7.1 °C 1023.2 hPa SW 3.2 km/h 4.8 km/h 99% 0 mm 55 W/m2
10:50 7.3 °C 7.2 °C 1023.2 hPa SSW 1.6 km/h 4.8 km/h 99% 0 mm 72 W/m2
11:00 7.4 °C 7.3 °C 1023.2 hPa SSW 3.2 km/h 6.4 km/h 99% 0 mm 72 W/m2
11:10 7.4 °C 7.3 °C 1023.2 hPa SSW 3.2 km/h 4.8 km/h 99% 0 mm 52 W/m2
11:20 7.4 °C 7.3 °C 1023.2 hPa SW 3.2 km/h 6.4 km/h 99% 0 mm 64 W/m2
11:30 7.5 °C 7.3 °C 1023.2 hPa SSW 3.2 km/h 6.4 km/h 99% 0 mm 45 W/m2
11:40 7.5 °C 7.3 °C 1023.2 hPa SW 3.2 km/h 6.4 km/h 99% 0 mm 30 W/m2
11:50 7.4 °C 7.3 °C 1023.2 hPa SW 4.8 km/h 8 km/h 99% 0 mm 24 W/m2
12:00 7.4 °C 7.3 °C 1023.2 hPa WSW 3.2 km/h 11.3 km/h 99% 0 mm 28 W/m2
12:10 7.3 °C 7.2 °C 1023.2 hPa SW 8 km/h 11.3 km/h 99% 0 mm 29 W/m2
12:20 7.3 °C 7.2 °C 1023.2 hPa WSW 3.2 km/h 11.3 km/h 99% 0 mm 31 W/m2
12:30 7.3 °C 7.2 °C 1023.2 hPa WSW 3.2 km/h 9.7 km/h 99% 0 mm 24 W/m2
12:40 7.2 °C 7.1 °C 1023.6 hPa SW 4.8 km/h 8 km/h 99% 0 mm 21 W/m2
12:50 7.2 °C 6.9 °C 1023.6 hPa WSW 3.2 km/h 8 km/h 98% 0 mm 24 W/m2
13:00 7.2 °C 6.9 °C 1023.6 hPa WSW 1.6 km/h 4.8 km/h 98% 0 mm 21 W/m2
13:10 7.2 °C 6.9 °C 1023.6 hPa West 3.2 km/h 6.4 km/h 98% 0 mm 18 W/m2
13:20 7.2 °C 6.9 °C 1023.6 hPa SW 3.2 km/h 8 km/h 98% 0 mm 17 W/m2
13:30 7.2 °C 6.9 °C 1023.6 hPa SW 4.8 km/h 9.7 km/h 98% 0 mm 16 W/m2
13:40 7.2 °C 6.6 °C 1023.6 hPa SW 8 km/h 12.9 km/h 96% 0 mm 25 W/m2
13:50 7.2 °C 6.4 °C 1023.6 hPa WSW 8 km/h 12.9 km/h 95% 0 mm 26 W/m2
14:00 7.2 °C 6.4 °C 1023.6 hPa WSW 9.7 km/h 14.5 km/h 95% 0 mm 31 W/m2
14:10 7.2 °C 6.4 °C 1023.6 hPa WSW 4.8 km/h 19.3 km/h 95% 0 mm 44 W/m2
14:20 7.3 °C 6.6 °C 1023.6 hPa WSW 8 km/h 12.9 km/h 95% 0 mm 39 W/m2
14:30 7.4 °C 6.8 °C 1023.9 hPa SW 4.8 km/h 11.3 km/h 96% 0 mm 38 W/m2
14:40 7.4 °C 6.7 °C 1023.9 hPa WSW 1.6 km/h 8 km/h 95% 0 mm 33 W/m2
14:50 7.4 °C 6.7 °C 1023.9 hPa WSW 3.2 km/h 11.3 km/h 95% 0 mm 30 W/m2
15:00 7.5 °C 6.9 °C 1024.3 hPa SW 3.2 km/h 6.4 km/h 96% 0 mm 25 W/m2
15:10 7.5 °C 6.9 °C 1024.3 hPa West 1.6 km/h 4.8 km/h 96% 0 mm 20 W/m2
15:20 7.6 °C 6.9 °C 1024.3 hPa West 3.2 km/h 9.7 km/h 96% 0 mm 14 W/m2
15:30 7.5 °C 6.6 °C 1024.3 hPa WSW 9.7 km/h 12.9 km/h 94% 0.51 mm 12 W/m2
15:40 7.4 °C 6.3 °C 1024.3 hPa WSW 8 km/h 16.1 km/h 93% 0 mm 9 W/m2
15:50 7.3 °C 5.9 °C 1024.3 hPa WSW 12.9 km/h 19.3 km/h 91% 0 mm 5 W/m2
16:00 7.2 °C 5.8 °C 1024.3 hPa WSW 8 km/h 16.1 km/h 91% 0 mm 0 W/m2
16:10 7.1 °C 5.7 °C 1024.3 hPa WSW 8 km/h 14.5 km/h 91% 0 mm 0 W/m2
16:20 7.1 °C 5.6 °C 1024.3 hPa WSW 9.7 km/h 16.1 km/h 90% 0 mm 0 W/m2
16:30 7 °C 5.6 °C 1024.3 hPa WSW 4.8 km/h 12.9 km/h 91% 0 mm 0 W/m2
16:40 6.9 °C 5.6 °C 1024.6 hPa WSW 3.2 km/h 9.7 km/h 91% 0 mm 0 W/m2
17:00 6.8 °C 5.4 °C 1024.6 hPa WNW 3.2 km/h 11.3 km/h 91% 0 mm 0 W/m2
17:10 6.8 °C 5.4 °C 1024.6 hPa WNW 1.6 km/h 11.3 km/h 91% 0 mm 0 W/m2
17:20 6.7 °C 5.7 °C 1024.6 hPa WNW 1.6 km/h 8 km/h 93% 0 mm 0 W/m2
17:30 6.7 °C 5.7 °C 1024.9 hPa NNW 1.6 km/h 9.7 km/h 93% 0 mm 0 W/m2
17:40 6.6 °C 5.2 °C 1024.9 hPa NW 3.2 km/h 8 km/h 91% 0 mm 0 W/m2
17:50 6.5 °C 5.1 °C 1024.9 hPa NW 3.2 km/h 12.9 km/h 91% 0 mm 0 W/m2
18:00 6.4 °C 5.1 °C 1025.3 hPa NW 8 km/h 12.9 km/h 91% 0 mm 0 W/m2
18:10 6.3 °C 4.9 °C 1025.3 hPa WNW 8 km/h 14.5 km/h 91% 0 mm 0 W/m2
18:20 6.2 °C 4.8 °C 1025.3 hPa WNW 4.8 km/h 11.3 km/h 91% 0 mm 0 W/m2
18:30 6.1 °C 4.7 °C 1025.6 hPa West 3.2 km/h 11.3 km/h 91% 0 mm 0 W/m2
18:40 6.1 °C 5.1 °C 1025.6 hPa West 3.2 km/h 8 km/h 93% 0 mm 0 W/m2
18:50 6 °C 4.9 °C 1025.6 hPa SW 3.2 km/h 4.8 km/h 93% 0 mm 0 W/m2
19:00 6 °C 4.9 °C 1026 hPa WSW 1.6 km/h 4.8 km/h 93% 0 mm 0 W/m2
19:10 6 °C 4.9 °C 1026 hPa SW 4.8 km/h 8 km/h 93% 0 mm 0 W/m2
19:20 6 °C 4.9 °C 1026 hPa WSW 1.6 km/h 8 km/h 93% 0 mm 0 W/m2
19:30 6 °C 4.9 °C 1026 hPa WSW 3.2 km/h 8 km/h 93% 0 mm 0 W/m2
19:40 6.1 °C 5 °C 1026 hPa West 1.6 km/h 3.2 km/h 93% 0 mm 0 W/m2
19:50 6 °C 5.1 °C 1026 hPa SW 1.6 km/h 3.2 km/h 94% 0 mm 0 W/m2
20:00 6 °C 5.1 °C 1026.3 hPa Calm   3.2 km/h 94% 0 mm 0 W/m2
20:10 6 °C 5.1 °C 1026 hPa WSW 1.6 km/h 4.8 km/h 94% 0 mm 0 W/m2
20:20 6 °C 5.1 °C 1026.3 hPa West 1.6 km/h 4.8 km/h 94% 0 mm 0 W/m2
20:30 6 °C 5.1 °C 1026.3 hPa SW 1.6 km/h 3.2 km/h 94% 0 mm 0 W/m2
20:40 6 °C 5.3 °C 1026.3 hPa Calm   3.2 km/h 95% 0 mm 0 W/m2
20:50 6 °C 5.3 °C 1026.3 hPa Calm   3.2 km/h 95% 0 mm 0 W/m2
21:00 6 °C 5.3 °C 1026.3 hPa Calm   3.2 km/h 95% 0 mm 0 W/m2
21:10 6 °C 5.1 °C 1026.3 hPa WSW 1.6 km/h 4.8 km/h 94% 0 mm 0 W/m2
21:20 6 °C 5.3 °C 1026.3 hPa WNW 1.6 km/h 4.8 km/h 95% 0 mm 0 W/m2
21:30 6 °C 5.3 °C 1026.3 hPa ESE 3.2 km/h 4.8 km/h 95% 0 mm 0 W/m2
21:40 6 °C 5.3 °C 1026.3 hPa Calm   4.8 km/h 95% 0 mm 0 W/m2
21:50 5.9 °C 5.3 °C 1026.3 hPa Calm   3.2 km/h 96% 0 mm 0 W/m2
22:00 5.9 °C 5.3 °C 1026.3 hPa Calm   1.6 km/h 96% 0 mm 0 W/m2
22:10 5.9 °C 5.3 °C 1026.3 hPa Calm   1.6 km/h 96% 0 mm 0 W/m2
22:20 5.8 °C 5.2 °C 1026.6 hPa Calm   3.2 km/h 96% 0 mm 0 W/m2
22:30 5.8 °C 5.2 °C 1026.6 hPa SSW 1.6 km/h 3.2 km/h 96% 0 mm 0 W/m2
22:40 5.8 °C 5.2 °C 1026.6 hPa Calm   3.2 km/h 96% 0 mm 0 W/m2
22:50 5.8 °C 5.2 °C 1026.6 hPa WNW 1.6 km/h 3.2 km/h 96% 0 mm 0 W/m2
23:00 5.7 °C 5.1 °C 1026.6 hPa WSW 1.6 km/h 3.2 km/h 96% 0 mm 0 W/m2
23:10 5.7 °C 5.1 °C 1026.6 hPa Calm   4.8 km/h 96% 0 mm 0 W/m2
23:20 5.7 °C 5.1 °C 1026.6 hPa Calm   3.2 km/h 96% 0 mm 0 W/m2
23:30 5.6 °C 5 °C 1026.6 hPa SSW 1.6 km/h 6.4 km/h 96% 0 mm 0 W/m2
23:40 5.5 °C 4.9 °C 1026.6 hPa WNW 1.6 km/h 3.2 km/h 96% 0 mm 0 W/m2
23:50 5.5 °C 4.9 °C 1026.6 hPa Calm   3.2 km/h 96% 0 mm 0 W/m2
Knjazevac, Serbia
Compliments of Weather Underground - 2 mb